Relevés horaires Schaffen (Belgique)


Relevés horaires à Schaffen - Mardi 22 Août 2017
Heure UTC1 Température [°C] Vent [km/h] Hum. [%] Pres.4 [hPa] Visi. [Km] Nébu. [octa] Préc.5 [mm] Cond.
2m. Res. Ros. Dir.2 Vit. Moy. Raf.3
23:00 17.5 17.5 11.9 NNO 1.9 -- 7.4 70 1017.3(-0.7/3h) 20 -- -- --
22:00 17.8 17.8 12.1 NE 3.7 -- 7.4 69 1017.7(-0.3/3h) 20 -- -- --
21:00 19.0 19.0 11.8 ENE 3.7 -- 5.6 63 1018.1(-0.1/3h) 20 -- -- --
20:00 19.3 19.3 11.7 NNO 1.9 -- 5.6 61 1018.2(0.0/3h) 20 -- -- --
19:00 20.6 20.6 11.6 ENE 3.7 -- 5.6 56 1018(-0.5/3h) 18 -- -- --
18:00 21.7 21.7 11.4 E 3.7 -- 9.3 52 1018.2(-1.1/3h) 20 -- -- --
17:00 22.8 22.8 12.1 ESE 3.7 -- 7.4 51 1018.2(-1.6/3h) 20 -- -- --
16:00 23.6 23.6 11.7 SSE 3.7 -- 7.4 47 1018.5(-1.7/3h) 20 -- -- --
15:00 23.7 23.7 12.6 NNO 1.9 -- 9.3 50 1019.2(-1.1/3h) 20 2/8 -- --
14:00 24.0 24.0 10.6 NNO 1.9 -- 9.3 43 1019.7(-1.0/3h) 20 2/8 -- --
13:00 23.7 23.7 12.4 S 3.7 -- 7.4 49 1020.2(-0.9/3h) 20 4/8 -- --
12:00 23.4 23.4 12.3 NNO 1.9 -- 11.1 50 1020.3(-1.1/3h) 20 4/8 -- --
11:00 22.2 22.2 11.9 NNO 1.9 -- 11.1 52 1020.8(-0.4/3h) 20 4/8 -- --
10:00 22.0 22.0 14.0 SE 3.7 -- 9.3 60 1021.2(0.0/3h) 20 4/8 -- --
09:00 20.6 20.6 15.0 NNO 1.9 -- 3.7 70 1021.6(0.2/3h) 20 7/8 -- --
08:00 19.2 19.2 14.4 NNO 1.9 -- 3.7 74 1021.3(0.1/3h) 20 7/8 -- --
07:00 17.1 17.1 13.7 NNO 1.9 -- 3.7 80 1021.2(-0.1/3h) 20 6/8 -- --
06:00 15.1 15.1 13.3 NNO 1.9 -- 1.9 89 1021.5(-0.2/3h) 20 6/8 -- --
05:00 15.1 15.1 13.3 NNO 1.9 -- 1.9 89 1021.2(-0.5/3h) 20 7/8 -- --
04:00 14.9 14.9 13.2 NNO 1.9 -- 1.9 90 1021.5(-0.4/3h) 20 7/8 -- --
03:00 15.8 15.8 13.3 NNO 1.9 -- 1.9 85 1021.7(-0.4/3h) 19 -- -- --
02:00 15.6 15.6 14.0 NNO 1.9 -- 1.9 90 1022(-0.2/3h) 20 -- -- --
01:00 16.3 16.3 13.7 NNO 1.9 -- 1.9 85 1021.8(-0.6/3h) 20 -- -- --
00:00 16.5 16.5 13.6 NNO 1.9 -- 1.9 83 1022.1(-0.4/3h) 20 -- -- --

1 Coordinated Universal Time. Actuellement il est 10:00 locale et 09:00 UTC.

2 Le vent souffle depuis la direction indiquée vers la direction oposée.

3 Les rafales max. sont disponible 40 min après l'heure du relevé.

4 Pour les stations d'altitude (plus de 600m) le géopotentiel du niveau le plus proche de la pression obligatoire est indiqué.

5 Les stations disposant d'un diffuseur peuvent indiquer "trace". Cela signifie que des précipitations ont touchés le sol mais que la quantité est inférieure à 0.1 mm.

Récapitulatif de la journée
Température [°C] Vent [km/h] Ensoleillement4 [h] Precipitations totale5 [mm] Pression [Hpa]
Min1 Max.2 Moy.3 Max. Min Max.
14.6 24.9 0 11.1 0 h 0 min 0 1017.3 1022.1

1 Température minimale relevée entre 18:00 UTC la veille et 18:00 UTC le jour donné.

2 Température maximale relevée entre 06:00 UTC le jour donné et 06:00 UTC le lendemain.

3 Vent moyen de la journée basé sur les relevés horaires.

4 Ensoleillement en heures relevé entre 06:00 UTC la veille et 06:00 UTC le jour donné.

5 Précipitations totales tombées entre 06:00 UTC la jour donné et 06:00 UTC le lendemain.

Graphiques horaires